createdAt,value
2022-12-25T00:02:08.689Z,7.30
2022-12-25T00:04:36.088Z,7.40
2022-12-25T00:07:03.312Z,7.30
2022-12-25T00:09:30.774Z,7.30
2022-12-25T00:11:58.023Z,7.30
2022-12-25T00:14:25.282Z,7.30
2022-12-25T00:16:52.569Z,7.30
2022-12-25T00:19:19.770Z,7.20
2022-12-25T00:21:47.316Z,7.10
2022-12-25T00:24:15.159Z,7.00
2022-12-25T00:26:44.839Z,7.00
2022-12-25T00:29:15.826Z,7.00
2022-12-25T00:31:46.425Z,7.00
2022-12-25T00:34:14.108Z,7.00
2022-12-25T00:36:42.446Z,7.00
2022-12-25T00:39:10.098Z,6.90
2022-12-25T00:41:55.931Z,6.80
2022-12-25T00:44:23.373Z,6.80
2022-12-25T00:46:50.680Z,6.70
2022-12-25T00:49:23.680Z,6.60
2022-12-25T00:51:51.651Z,6.60
2022-12-25T00:54:22.257Z,6.50
2022-12-25T00:56:49.551Z,6.30
2022-12-25T00:59:16.812Z,6.30
2022-12-25T01:01:44.572Z,6.30
2022-12-25T01:04:12.433Z,6.30
2022-12-25T01:06:40.210Z,6.20
2022-12-25T01:09:26.262Z,6.20
2022-12-25T01:11:56.926Z,6.20
2022-12-25T01:14:24.167Z,6.20
2022-12-25T01:16:51.514Z,6.20
2022-12-25T01:19:18.734Z,6.20
2022-12-25T01:21:49.245Z,6.10
2022-12-25T01:24:18.919Z,6.10
2022-12-25T01:26:47.350Z,6.10
2022-12-25T01:29:16.377Z,6.20
2022-12-25T01:31:44.731Z,6.10
2022-12-25T01:34:11.973Z,6.10
2022-12-25T01:37:04.986Z,6.20
2022-12-25T01:39:38.193Z,6.10
2022-12-25T01:42:06.865Z,6.10
2022-12-25T01:44:37.153Z,6.10
2022-12-25T01:47:05.984Z,6.10
2022-12-25T01:49:36.369Z,6.10
2022-12-25T01:52:11.370Z,6.10
2022-12-25T01:54:43.069Z,6.10
2022-12-25T01:57:16.426Z,6.10
2022-12-25T01:59:43.885Z,5.90
2022-12-25T02:02:11.877Z,6.00
2022-12-25T02:04:45.759Z,6.00
2022-12-25T02:07:22.561Z,5.90
2022-12-25T02:09:50.401Z,5.90
2022-12-25T02:12:30.919Z,5.70
2022-12-25T02:15:05.820Z,5.60
2022-12-25T02:17:48.556Z,5.60
2022-12-25T02:20:50.686Z,5.60
2022-12-25T02:23:52.219Z,5.70
2022-12-25T02:26:59.759Z,5.60
2022-12-25T02:30:05.874Z,5.60
2022-12-25T02:32:44.829Z,5.60
2022-12-25T02:35:27.310Z,5.60
2022-12-25T02:38:07.965Z,5.60
2022-12-25T02:40:47.154Z,5.70
2022-12-25T02:43:43.399Z,5.70
2022-12-25T02:46:35.461Z,5.60
2022-12-25T02:49:36.216Z,5.50
2022-12-25T02:52:44.348Z,5.50
2022-12-25T02:55:33.989Z,5.40
2022-12-25T02:58:26.088Z,5.40
2022-12-25T03:01:18.297Z,5.50
2022-12-25T03:04:08.452Z,5.40
2022-12-25T03:06:42.967Z,5.50
2022-12-25T03:09:54.174Z,5.50
2022-12-25T03:12:46.402Z,5.50
2022-12-25T03:15:32.886Z,5.50
2022-12-25T03:18:16.645Z,5.50
2022-12-25T03:21:02.796Z,5.50
2022-12-25T03:23:52.692Z,5.50
2022-12-25T03:26:38.518Z,5.60
2022-12-25T03:29:06.090Z,5.60
2022-12-25T03:31:49.839Z,5.70
2022-12-25T03:35:13.158Z,5.70
2022-12-25T03:38:47.260Z,5.70
2022-12-25T03:41:56.294Z,5.60
2022-12-25T03:44:55.415Z,5.60
2022-12-25T03:47:37.569Z,5.60
2022-12-25T03:50:36.991Z,5.60
2022-12-25T03:53:33.562Z,5.60
2022-12-25T03:56:19.998Z,5.60
2022-12-25T03:59:10.914Z,5.50
2022-12-25T04:01:57.029Z,5.50
2022-12-25T04:04:42.957Z,5.50
2022-12-25T04:07:28.958Z,5.50
2022-12-25T04:10:15.261Z,5.50
2022-12-25T04:16:14.298Z,5.50
2022-12-25T04:19:00.096Z,5.70
2022-12-25T04:21:46.294Z,5.60
2022-12-25T04:24:32.376Z,5.60
2022-12-25T04:27:18.135Z,5.50
2022-12-25T04:30:04.028Z,5.50
2022-12-25T04:32:53.361Z,5.60
2022-12-25T04:35:39.151Z,5.50
2022-12-25T04:38:06.420Z,5.50
2022-12-25T04:40:33.688Z,5.60
2022-12-25T04:43:00.961Z,5.50
2022-12-25T04:45:28.482Z,5.60
2022-12-25T04:47:55.851Z,5.60
2022-12-25T04:50:23.220Z,5.60
2022-12-25T04:52:50.549Z,5.60
2022-12-25T04:55:17.895Z,5.50
2022-12-25T04:57:45.383Z,5.50
2022-12-25T05:00:13.011Z,5.50
2022-12-25T05:02:40.431Z,5.70
2022-12-25T05:05:08.234Z,5.80
2022-12-25T05:07:35.563Z,5.90
2022-12-25T05:10:03.081Z,5.90
2022-12-25T05:12:30.330Z,5.90
2022-12-25T05:14:57.608Z,5.80
2022-12-25T05:17:24.854Z,5.70
2022-12-25T05:19:52.283Z,5.80
2022-12-25T05:22:19.560Z,5.80
2022-12-25T05:24:46.867Z,5.90
2022-12-25T05:27:14.787Z,5.90
2022-12-25T05:29:42.308Z,5.90
2022-12-25T05:32:09.687Z,5.90
2022-12-25T05:34:37.122Z,5.90
2022-12-25T05:37:06.340Z,5.90
2022-12-25T05:39:33.709Z,5.90
2022-12-25T05:42:26.148Z,5.90
2022-12-25T05:44:50.769Z,6.00
2022-12-25T05:47:18.053Z,6.00
2022-12-25T05:49:45.364Z,6.00
2022-12-25T05:52:12.774Z,6.00
2022-12-25T05:54:40.383Z,5.90
2022-12-25T05:57:07.704Z,5.90
2022-12-25T05:59:34.983Z,5.90
2022-12-25T06:02:02.329Z,5.90
2022-12-25T06:04:29.758Z,6.00
2022-12-25T06:06:57.240Z,6.00
2022-12-25T06:09:33.556Z,5.90
2022-12-25T06:12:00.819Z,5.90
2022-12-25T06:14:28.077Z,5.90
2022-12-25T06:16:55.480Z,5.90
2022-12-25T06:19:23.019Z,5.90
2022-12-25T06:21:53.460Z,6.00
2022-12-25T06:24:23.927Z,6.00
2022-12-25T06:26:51.312Z,6.00
2022-12-25T06:29:19.006Z,6.10
2022-12-25T06:31:46.421Z,6.10
2022-12-25T06:34:16.488Z,6.20
2022-12-25T06:36:43.828Z,6.30
2022-12-25T06:39:11.282Z,6.30
2022-12-25T06:41:38.719Z,6.40
2022-12-25T06:44:06.071Z,6.40
2022-12-25T06:46:33.490Z,6.40
2022-12-25T06:49:00.806Z,6.40
2022-12-25T06:51:30.831Z,6.40
2022-12-25T06:53:59.327Z,6.50
2022-12-25T06:56:28.062Z,6.50
2022-12-25T06:58:58.288Z,6.60
2022-12-25T07:01:31.755Z,6.70
2022-12-25T07:04:03.050Z,6.70
2022-12-25T07:06:30.797Z,6.60
2022-12-25T07:08:58.311Z,6.60
2022-12-25T07:11:26.220Z,6.60
2022-12-25T07:13:53.555Z,6.60
2022-12-25T07:16:20.968Z,6.70
2022-12-25T07:18:50.718Z,6.70
2022-12-25T07:21:20.274Z,6.70
2022-12-25T07:23:49.673Z,6.70
2022-12-25T07:26:19.988Z,6.70
2022-12-25T07:28:47.288Z,6.80
2022-12-25T07:31:16.521Z,6.80
2022-12-25T07:33:44.268Z,6.80
2022-12-25T07:36:17.181Z,6.90
2022-12-25T07:38:47.899Z,6.90
2022-12-25T07:41:15.435Z,6.90
2022-12-25T07:43:42.928Z,7.00
2022-12-25T07:46:11.415Z,7.10
2022-12-25T07:48:42.018Z,7.00
2022-12-25T07:51:13.168Z,7.00
2022-12-25T07:53:41.035Z,7.00
2022-12-25T07:56:17.341Z,7.00
2022-12-25T07:58:45.053Z,7.10
2022-12-25T08:01:19.432Z,7.10
2022-12-25T08:03:51.726Z,7.10
2022-12-25T08:06:20.384Z,7.20
2022-12-25T08:08:48.093Z,7.20
2022-12-25T08:11:15.762Z,7.20
2022-12-25T08:13:44.484Z,7.30
2022-12-25T08:16:12.051Z,7.30
2022-12-25T08:18:40.512Z,7.30
2022-12-25T08:21:11.836Z,7.30
2022-12-25T08:23:44.720Z,7.30
2022-12-25T08:26:18.791Z,7.40
2022-12-25T08:28:47.018Z,7.50
2022-12-25T08:31:22.151Z,7.50
2022-12-25T08:33:52.044Z,7.50
2022-12-25T08:36:20.255Z,7.50
2022-12-25T08:38:48.003Z,7.60
2022-12-25T08:41:26.313Z,7.70
2022-12-25T08:43:53.874Z,7.70
2022-12-25T08:46:21.466Z,7.70
2022-12-25T08:48:50.050Z,7.70
2022-12-25T08:51:19.790Z,7.80
2022-12-25T08:53:48.763Z,7.80
2022-12-25T08:56:16.387Z,7.80
2022-12-25T08:58:43.947Z,7.90
2022-12-25T09:01:12.303Z,7.90
2022-12-25T09:03:39.917Z,7.90
2022-12-25T09:06:13.396Z,8.00
2022-12-25T09:08:46.196Z,8.10
2022-12-25T09:11:21.060Z,8.10
2022-12-25T09:13:49.095Z,8.20
2022-12-25T09:16:20.478Z,8.40
2022-12-25T09:18:51.643Z,8.50
2022-12-25T09:21:19.492Z,8.50
2022-12-25T09:23:46.822Z,8.60
2022-12-25T09:26:18.268Z,8.70
2022-12-25T09:28:51.278Z,8.80
2022-12-25T09:31:21.488Z,8.90
2022-12-25T09:33:51.835Z,9.00
2022-12-25T09:36:21.232Z,9.10
2022-12-25T09:38:48.592Z,9.20
2022-12-25T09:41:34.075Z,9.40
2022-12-25T09:44:10.417Z,9.40
2022-12-25T09:46:47.022Z,9.50
2022-12-25T09:49:55.992Z,9.60
2022-12-25T09:52:26.701Z,9.70
2022-12-25T09:55:03.043Z,9.80
2022-12-25T09:57:33.673Z,9.90
2022-12-25T10:00:05.481Z,9.90
2022-12-25T10:03:06.527Z,9.90
2022-12-25T10:06:03.222Z,9.90
2022-12-25T10:08:30.508Z,9.90
2022-12-25T10:11:19.190Z,9.90
2022-12-25T10:13:53.340Z,10.00
2022-12-25T10:16:35.592Z,10.10
2022-12-25T10:19:37.583Z,10.10
2022-12-25T10:22:14.178Z,10.20
2022-12-25T10:24:48.096Z,10.20
2022-12-25T10:27:40.653Z,10.20
2022-12-25T10:30:32.497Z,10.30
2022-12-25T10:33:02.102Z,10.40
2022-12-25T10:35:30.692Z,10.50
2022-12-25T10:38:01.315Z,10.60
2022-12-25T10:40:31.764Z,10.60
2022-12-25T10:43:11.040Z,10.60
2022-12-25T10:45:47.359Z,10.60
2022-12-25T10:48:20.495Z,10.70
2022-12-25T10:50:48.257Z,10.70
2022-12-25T10:53:24.431Z,10.80
2022-12-25T10:56:28.917Z,10.80
2022-12-25T10:59:27.713Z,10.80
2022-12-25T11:02:03.982Z,10.90
2022-12-25T11:04:34.880Z,11.00
2022-12-25T11:07:07.490Z,11.10
2022-12-25T11:09:36.847Z,11.20
2022-12-25T11:12:31.816Z,11.10
2022-12-25T11:15:02.903Z,11.20
2022-12-25T11:17:30.234Z,11.30
2022-12-25T11:19:59.786Z,11.30
2022-12-25T11:22:30.936Z,11.30
2022-12-25T11:25:27.772Z,11.40
2022-12-25T11:31:09.949Z,11.40
2022-12-25T11:33:46.947Z,11.40
2022-12-25T11:36:27.112Z,11.40
2022-12-25T11:38:54.653Z,11.50
2022-12-25T11:41:27.551Z,11.60
2022-12-25T11:43:59.474Z,11.60
2022-12-25T11:46:33.589Z,11.70
2022-12-25T11:49:05.693Z,11.80
2022-12-25T11:51:40.274Z,11.80
2022-12-25T11:54:23.027Z,11.80
2022-12-25T11:56:52.121Z,11.90
2022-12-25T11:59:40.760Z,11.90
2022-12-25T12:02:29.699Z,11.90
2022-12-25T12:05:22.255Z,12.00
2022-12-25T12:08:01.889Z,12.10
2022-12-25T12:11:15.748Z,12.10
2022-12-25T12:13:53.351Z,12.10
2022-12-25T12:16:21.396Z,12.10
2022-12-25T12:19:30.898Z,12.20
2022-12-25T12:22:08.521Z,12.20
2022-12-25T12:24:42.684Z,12.20
2022-12-25T12:27:27.638Z,12.30
2022-12-25T12:29:58.434Z,12.20
2022-12-25T12:32:40.839Z,12.20
2022-12-25T12:35:32.874Z,12.20
2022-12-25T12:38:04.552Z,12.20
2022-12-25T12:40:38.363Z,12.10
2022-12-25T12:43:22.094Z,12.20
2022-12-25T12:45:57.787Z,12.20
2022-12-25T12:48:32.488Z,12.20
2022-12-25T12:51:07.216Z,12.20
2022-12-25T12:53:39.439Z,12.10
2022-12-25T12:56:19.066Z,12.10
2022-12-25T12:58:52.085Z,12.20
2022-12-25T13:01:38.227Z,12.20
2022-12-25T13:04:44.946Z,12.20
2022-12-25T13:07:45.706Z,12.20
2022-12-25T13:10:22.856Z,12.20
2022-12-25T13:13:14.368Z,12.20
2022-12-25T13:15:47.913Z,12.10
2022-12-25T13:18:20.360Z,12.10
2022-12-25T13:21:05.985Z,12.00
2022-12-25T13:23:36.188Z,12.00
2022-12-25T13:26:12.429Z,12.00
2022-12-25T13:28:39.851Z,12.00
2022-12-25T13:31:14.516Z,12.00
2022-12-25T13:33:46.366Z,12.00
2022-12-25T13:36:14.306Z,12.00
2022-12-25T13:38:50.408Z,11.90
2022-12-25T13:41:41.904Z,11.90
2022-12-25T13:44:19.580Z,11.90
2022-12-25T13:46:47.271Z,11.90
2022-12-25T13:49:18.067Z,11.90
2022-12-25T13:51:53.514Z,11.90
2022-12-25T13:54:20.872Z,11.80
2022-12-25T13:56:54.294Z,11.80
2022-12-25T13:59:24.618Z,11.70
2022-12-25T14:01:54.106Z,11.70
2022-12-25T14:04:24.482Z,11.70
2022-12-25T14:07:11.920Z,11.70
2022-12-25T14:09:40.425Z,11.70
2022-12-25T14:12:17.376Z,11.60
2022-12-25T14:14:49.202Z,11.60
2022-12-25T14:17:18.284Z,11.60
2022-12-25T14:20:00.943Z,11.60
2022-12-25T14:22:32.794Z,11.60
2022-12-25T14:25:14.217Z,11.50
2022-12-25T14:31:53.249Z,11.50
2022-12-25T14:34:27.619Z,11.50
2022-12-25T14:36:59.732Z,11.50
2022-12-25T14:42:39.719Z,11.50
2022-12-25T14:45:26.511Z,11.50
2022-12-25T14:47:54.920Z,11.40
2022-12-25T14:50:36.420Z,11.40
2022-12-25T14:53:04.484Z,11.30
2022-12-25T14:55:31.981Z,11.40
2022-12-25T14:58:30.000Z,11.40
2022-12-25T15:01:40.630Z,11.40
2022-12-25T15:07:18.379Z,11.30
2022-12-25T15:12:59.183Z,11.20
2022-12-25T15:15:26.823Z,11.20
2022-12-25T15:17:54.958Z,11.20
2022-12-25T15:20:27.810Z,11.20
2022-12-25T15:23:18.596Z,11.10
2022-12-25T15:26:08.577Z,11.10
2022-12-25T15:28:35.295Z,11.10
2022-12-25T15:31:02.596Z,11.00
2022-12-25T15:33:32.184Z,11.00
2022-12-25T15:35:59.442Z,11.00
2022-12-25T15:38:27.244Z,11.00
2022-12-25T15:40:54.580Z,10.90
2022-12-25T15:43:40.027Z,10.90
2022-12-25T15:46:10.039Z,10.90
2022-12-25T15:48:53.812Z,10.90
2022-12-25T15:51:52.284Z,10.90
2022-12-25T15:54:22.087Z,10.90
2022-12-25T16:00:32.240Z,10.80
2022-12-25T16:02:59.716Z,10.80
2022-12-25T16:08:20.865Z,10.80
2022-12-25T16:10:48.263Z,10.80
2022-12-25T16:13:17.653Z,10.80
2022-12-25T16:15:50.931Z,10.80
2022-12-25T16:18:18.513Z,10.80
2022-12-25T16:20:45.803Z,10.80
2022-12-25T16:23:13.250Z,10.80
2022-12-25T16:25:40.572Z,10.80
2022-12-25T16:30:51.482Z,10.80
2022-12-25T16:33:18.764Z,10.80
2022-12-25T16:35:47.081Z,10.70
2022-12-25T16:38:14.367Z,10.70
2022-12-25T16:40:41.870Z,10.70
2022-12-25T16:43:11.772Z,10.70
2022-12-25T16:45:40.070Z,10.70
2022-12-25T16:48:08.659Z,10.70
2022-12-25T16:50:39.408Z,10.70
2022-12-25T16:53:07.467Z,10.70
2022-12-25T16:55:36.708Z,10.70
2022-12-25T16:58:06.238Z,10.70
2022-12-25T17:00:33.764Z,10.60
2022-12-25T17:03:01.800Z,10.60
2022-12-25T17:05:31.106Z,10.60
2022-12-25T17:08:02.273Z,10.60
2022-12-25T17:10:29.748Z,10.60
2022-12-25T17:12:57.121Z,10.60
2022-12-25T17:15:24.442Z,10.70
2022-12-25T17:17:51.829Z,10.70
2022-12-25T17:20:19.053Z,10.70
2022-12-25T17:22:48.920Z,10.60
2022-12-25T17:25:18.679Z,10.60
2022-12-25T17:27:57.960Z,10.60
2022-12-25T17:30:25.298Z,10.50
2022-12-25T17:32:55.237Z,10.50
2022-12-25T17:35:23.454Z,10.50
2022-12-25T17:37:51.775Z,10.50
2022-12-25T17:40:19.248Z,10.50
2022-12-25T17:42:46.468Z,10.50
2022-12-25T17:45:14.247Z,10.50
2022-12-25T17:47:41.556Z,10.40
2022-12-25T17:50:11.103Z,10.40
2022-12-25T17:52:38.349Z,10.40
2022-12-25T17:55:06.159Z,10.40
2022-12-25T17:57:33.539Z,10.40
2022-12-25T18:00:08.532Z,10.40
2022-12-25T18:02:38.052Z,10.40
2022-12-25T18:05:38.326Z,10.40
2022-12-25T18:08:06.562Z,10.40
2022-12-25T18:10:39.274Z,10.40
2022-12-25T18:13:06.990Z,10.40
2022-12-25T18:15:40.181Z,10.40
2022-12-25T18:18:08.937Z,10.40
2022-12-25T18:20:40.284Z,10.40
2022-12-25T18:23:08.869Z,10.40
2022-12-25T18:26:28.844Z,10.40
2022-12-25T18:28:57.391Z,10.40
2022-12-25T18:31:40.347Z,10.40
2022-12-25T18:34:07.717Z,10.50
2022-12-25T18:36:35.050Z,10.50
2022-12-25T18:39:04.648Z,10.50
2022-12-25T18:41:52.067Z,10.40
2022-12-25T18:44:19.343Z,10.40
2022-12-25T18:46:46.626Z,10.40
2022-12-25T18:49:13.887Z,10.40
2022-12-25T18:51:41.450Z,10.30
2022-12-25T18:54:16.379Z,10.40
2022-12-25T18:56:43.689Z,10.30
2022-12-25T18:59:10.958Z,10.40
2022-12-25T19:01:38.298Z,10.30
2022-12-25T19:04:06.176Z,10.30
2022-12-25T19:06:36.249Z,10.30
2022-12-25T19:09:09.087Z,10.30
2022-12-25T19:11:45.643Z,10.20
2022-12-25T19:14:19.852Z,10.20
2022-12-25T19:16:47.513Z,10.20
2022-12-25T19:19:15.464Z,10.20
2022-12-25T19:21:42.855Z,10.20
2022-12-25T19:24:10.290Z,10.20
2022-12-25T19:26:40.361Z,10.20
2022-12-25T19:29:07.661Z,10.10
2022-12-25T19:31:35.213Z,10.10
2022-12-25T19:34:02.547Z,10.10
2022-12-25T19:36:30.566Z,10.10
2022-12-25T19:38:58.128Z,10.10
2022-12-25T19:41:25.521Z,10.10
2022-12-25T19:43:53.442Z,10.10
2022-12-25T19:46:27.128Z,10.10
2022-12-25T19:48:55.808Z,10.10
2022-12-25T19:51:24.976Z,10.20
2022-12-25T19:53:59.218Z,10.20
2022-12-25T19:56:40.387Z,10.10
2022-12-25T19:59:16.713Z,10.10
2022-12-25T20:01:44.004Z,10.10
2022-12-25T20:04:11.805Z,10.10
2022-12-25T20:06:44.057Z,10.00
2022-12-25T20:09:16.998Z,10.00
2022-12-25T20:11:46.366Z,10.00
2022-12-25T20:14:17.850Z,10.00
2022-12-25T20:16:45.492Z,10.00
2022-12-25T20:19:13.495Z,10.00
2022-12-25T20:21:41.412Z,10.00
2022-12-25T20:24:14.710Z,10.00
2022-12-25T20:26:44.349Z,9.90
2022-12-25T20:29:14.055Z,10.00
2022-12-25T20:31:48.891Z,9.90
2022-12-25T20:34:16.234Z,9.90
2022-12-25T20:36:46.881Z,9.90
2022-12-25T20:39:14.268Z,9.90
2022-12-25T20:41:48.022Z,9.90
2022-12-25T20:44:20.406Z,9.90
2022-12-25T20:46:50.398Z,9.90
2022-12-25T20:49:18.674Z,9.80
2022-12-25T20:51:49.216Z,9.90
2022-12-25T20:54:16.708Z,9.90
2022-12-25T20:56:44.209Z,9.90
2022-12-25T20:59:17.311Z,9.90
2022-12-25T21:01:44.982Z,9.90
2022-12-25T21:04:16.457Z,9.90
2022-12-25T21:06:47.565Z,9.90
2022-12-25T21:09:15.056Z,9.90
2022-12-25T21:11:44.404Z,9.80
2022-12-25T21:14:14.012Z,9.80
2022-12-25T21:16:43.987Z,9.80
2022-12-25T21:19:11.617Z,9.80
2022-12-25T21:21:46.631Z,9.80
2022-12-25T21:24:13.874Z,9.80
2022-12-25T21:26:47.656Z,9.90
2022-12-25T21:29:18.191Z,9.90
2022-12-25T21:32:04.704Z,9.90
2022-12-25T21:34:31.923Z,9.90
2022-12-25T21:36:59.153Z,9.90
2022-12-25T21:39:26.445Z,9.90
2022-12-25T21:41:53.948Z,9.90
2022-12-25T21:44:30.935Z,9.90
2022-12-25T21:46:58.382Z,9.90
2022-12-25T21:49:44.294Z,9.90
2022-12-25T21:52:14.532Z,9.90
2022-12-25T21:54:42.094Z,9.90
2022-12-25T21:57:09.619Z,9.90
2022-12-25T21:59:37.136Z,10.00
2022-12-25T22:02:11.204Z,9.90
2022-12-25T22:04:39.449Z,9.90
2022-12-25T22:07:18.944Z,9.90
2022-12-25T22:09:51.057Z,10.00
2022-12-25T22:12:39.171Z,9.90
2022-12-25T22:15:09.493Z,9.90
2022-12-25T22:17:58.301Z,9.90
2022-12-25T22:20:30.535Z,9.90
2022-12-25T22:22:58.637Z,9.90
2022-12-25T22:25:26.158Z,9.90
2022-12-25T22:27:54.280Z,9.90
2022-12-25T22:30:28.537Z,10.00
2022-12-25T22:32:56.460Z,10.00
2022-12-25T22:35:25.481Z,10.00
2022-12-25T22:37:53.981Z,10.00
2022-12-25T22:40:21.582Z,10.00
2022-12-25T22:42:49.195Z,10.00
2022-12-25T22:45:16.586Z,10.00
2022-12-25T22:47:47.073Z,10.00
2022-12-25T22:50:15.080Z,10.00
2022-12-25T22:52:45.570Z,10.00
2022-12-25T22:55:17.254Z,10.00
2022-12-25T22:57:44.571Z,10.00
2022-12-25T23:00:15.720Z,9.90
2022-12-25T23:02:43.243Z,9.90
2022-12-25T23:05:10.903Z,9.90
2022-12-25T23:07:38.659Z,9.90
2022-12-25T23:10:06.688Z,9.90
2022-12-25T23:12:52.774Z,9.90
2022-12-25T23:15:20.227Z,9.90
2022-12-25T23:18:06.146Z,9.90
2022-12-25T23:20:51.815Z,9.90
2022-12-25T23:23:37.649Z,9.90
2022-12-25T23:26:23.419Z,9.90
2022-12-25T23:29:48.299Z,9.90
2022-12-25T23:32:27.037Z,9.90
2022-12-25T23:34:58.501Z,9.90
2022-12-25T23:37:32.389Z,9.80
2022-12-25T23:40:27.036Z,9.80
2022-12-25T23:42:54.278Z,9.80
2022-12-25T23:45:21.909Z,9.80
2022-12-25T23:47:49.141Z,9.80
2022-12-25T23:50:16.455Z,9.80
2022-12-25T23:52:43.980Z,9.80
2022-12-25T23:55:11.385Z,9.70
2022-12-25T23:57:38.632Z,9.80
